createdAt,value
2022-10-16T00:01:33.138Z,87.20
2022-10-16T00:04:01.496Z,87.19
2022-10-16T00:06:29.817Z,87.24
2022-10-16T00:08:57.408Z,87.26
2022-10-16T00:11:30.251Z,87.30
2022-10-16T00:14:00.376Z,87.07
2022-10-16T00:16:29.514Z,87.16
2022-10-16T00:18:57.128Z,86.61
2022-10-16T00:21:27.896Z,86.57
2022-10-16T00:24:00.480Z,86.42
2022-10-16T00:26:30.468Z,85.96
2022-10-16T00:28:57.688Z,85.85
2022-10-16T00:31:26.063Z,85.53
2022-10-16T00:33:53.472Z,86.00
2022-10-16T00:36:23.781Z,86.25
2022-10-16T00:38:56.635Z,86.74
2022-10-16T00:41:25.844Z,86.76
2022-10-16T00:43:58.426Z,86.66
2022-10-16T00:46:43.046Z,86.43
2022-10-16T00:49:14.202Z,86.27
2022-10-16T00:51:54.841Z,85.95
2022-10-16T00:54:30.460Z,85.92
2022-10-16T00:57:04.726Z,85.24
2022-10-16T00:59:37.731Z,85.34
2022-10-16T01:02:08.131Z,85.49
2022-10-16T01:04:55.608Z,84.85
2022-10-16T01:07:41.049Z,85.07
2022-10-16T01:10:43.078Z,85.05
2022-10-16T01:13:23.082Z,85.21
2022-10-16T01:16:07.802Z,84.97
2022-10-16T01:18:43.963Z,85.05
2022-10-16T01:21:29.318Z,85.99
2022-10-16T01:24:24.037Z,85.83
2022-10-16T01:27:14.124Z,85.98
2022-10-16T01:30:10.953Z,85.98
2022-10-16T01:32:42.353Z,86.02
2022-10-16T01:35:13.467Z,85.98
2022-10-16T01:37:49.585Z,86.63
2022-10-16T01:40:19.703Z,86.71
2022-10-16T01:42:54.547Z,87.05
2022-10-16T01:45:22.565Z,87.33
2022-10-16T01:47:50.987Z,87.38
2022-10-16T01:50:21.834Z,87.41
2022-10-16T01:52:54.357Z,87.59
2022-10-16T01:55:29.333Z,87.95
2022-10-16T01:57:56.397Z,87.77
2022-10-16T02:00:24.486Z,87.79
2022-10-16T02:02:55.115Z,87.97
2022-10-16T02:05:32.429Z,87.99
2022-10-16T02:08:00.584Z,88.15
2022-10-16T02:10:32.848Z,88.72
2022-10-16T02:13:49.361Z,88.23
2022-10-16T02:16:16.962Z,88.25
2022-10-16T02:18:45.208Z,88.28
2022-10-16T02:21:24.273Z,88.27
2022-10-16T02:24:27.713Z,88.70
2022-10-16T02:27:11.743Z,88.57
2022-10-16T02:29:51.306Z,88.10
2022-10-16T02:32:23.216Z,88.55
2022-10-16T02:34:51.836Z,88.50
2022-10-16T02:37:20.241Z,88.80
2022-10-16T02:39:47.088Z,89.29
2022-10-16T02:42:15.286Z,89.00
2022-10-16T02:44:42.424Z,88.86
2022-10-16T02:47:09.328Z,88.69
2022-10-16T02:49:36.526Z,88.90
2022-10-16T02:52:04.169Z,88.97
2022-10-16T02:54:31.123Z,89.14
2022-10-16T02:56:58.011Z,88.97
2022-10-16T02:59:24.798Z,89.07
2022-10-16T03:01:51.729Z,89.47
2022-10-16T03:04:18.604Z,89.81
2022-10-16T03:06:45.389Z,90.17
2022-10-16T03:09:12.333Z,89.91
2022-10-16T03:11:39.176Z,90.33
2022-10-16T03:14:06.097Z,89.96
2022-10-16T03:16:33.205Z,90.32
2022-10-16T03:19:00.071Z,90.23
2022-10-16T03:21:26.851Z,90.09
2022-10-16T03:23:53.652Z,90.11
2022-10-16T03:26:20.451Z,90.13
2022-10-16T03:28:47.459Z,90.23
2022-10-16T03:31:14.235Z,90.60
2022-10-16T03:33:41.193Z,90.82
2022-10-16T03:36:07.967Z,91.00
2022-10-16T03:38:34.800Z,90.75
2022-10-16T03:41:01.744Z,90.61
2022-10-16T03:43:28.850Z,90.83
2022-10-16T03:45:55.703Z,91.01
2022-10-16T03:48:22.498Z,91.40
2022-10-16T03:50:49.532Z,91.31
2022-10-16T03:53:16.680Z,91.45
2022-10-16T03:55:44.649Z,91.40
2022-10-16T03:58:12.368Z,91.05
2022-10-16T04:00:43.929Z,91.13
2022-10-16T04:03:12.014Z,90.95
2022-10-16T04:05:38.984Z,91.08
2022-10-16T04:08:05.800Z,91.19
2022-10-16T04:10:33.086Z,90.92
2022-10-16T04:12:59.920Z,90.92
2022-10-16T04:15:27.347Z,90.85
2022-10-16T04:17:54.337Z,90.87
2022-10-16T04:20:21.368Z,90.95
2022-10-16T04:22:48.373Z,90.85
2022-10-16T04:25:15.303Z,90.79
2022-10-16T04:27:45.188Z,91.41
2022-10-16T04:30:13.417Z,91.18
2022-10-16T04:32:40.930Z,91.05
2022-10-16T04:35:08.608Z,91.27
2022-10-16T04:37:35.715Z,91.18
2022-10-16T04:40:02.520Z,91.23
2022-10-16T04:42:29.384Z,91.14
2022-10-16T04:44:56.232Z,91.16
2022-10-16T04:47:23.122Z,91.23
2022-10-16T04:49:49.929Z,91.30
2022-10-16T04:52:17.353Z,90.83
2022-10-16T04:54:46.256Z,90.76
2022-10-16T04:57:13.369Z,90.83
2022-10-16T04:59:40.155Z,90.49
2022-10-16T05:02:07.022Z,90.51
2022-10-16T05:04:33.835Z,90.60
2022-10-16T05:07:00.669Z,90.54
2022-10-16T05:09:27.755Z,90.57
2022-10-16T05:11:54.564Z,90.67
2022-10-16T05:14:21.344Z,90.77
2022-10-16T05:16:49.373Z,90.92
2022-10-16T05:19:26.808Z,91.18
2022-10-16T05:21:54.954Z,91.01
2022-10-16T05:24:21.762Z,90.96
2022-10-16T05:26:48.999Z,91.35
2022-10-16T05:29:15.761Z,90.84
2022-10-16T05:31:42.585Z,90.73
2022-10-16T05:34:09.466Z,90.73
2022-10-16T05:36:36.292Z,91.04
2022-10-16T05:39:03.939Z,91.17
2022-10-16T05:41:30.752Z,90.94
2022-10-16T05:43:57.500Z,91.12
2022-10-16T05:46:24.584Z,90.95
2022-10-16T05:48:54.409Z,90.75
2022-10-16T05:51:21.459Z,90.42
2022-10-16T05:53:48.692Z,90.51
2022-10-16T05:56:15.744Z,90.62
2022-10-16T05:58:43.260Z,90.13
2022-10-16T06:01:17.322Z,90.08
2022-10-16T06:03:44.710Z,90.18
2022-10-16T06:06:15.239Z,90.34
2022-10-16T06:08:44.622Z,90.38
2022-10-16T06:11:25.428Z,90.56
2022-10-16T06:14:02.921Z,90.52
2022-10-16T06:16:30.440Z,90.65
2022-10-16T06:18:57.660Z,90.66
2022-10-16T06:21:26.368Z,90.38
2022-10-16T06:23:54.074Z,90.44
2022-10-16T06:26:24.785Z,90.80
2022-10-16T06:28:51.681Z,90.99
2022-10-16T06:31:19.125Z,90.85
2022-10-16T06:33:48.075Z,90.88
2022-10-16T06:36:19.101Z,91.38
2022-10-16T06:38:45.981Z,91.04
2022-10-16T06:41:19.343Z,91.47
2022-10-16T06:43:47.161Z,91.56
2022-10-16T06:46:16.907Z,91.82
2022-10-16T06:48:44.345Z,92.03
2022-10-16T06:51:16.409Z,92.12
2022-10-16T06:54:06.128Z,92.20
2022-10-16T06:56:34.485Z,92.45
2022-10-16T06:59:01.679Z,92.64
2022-10-16T07:01:29.150Z,92.77
2022-10-16T07:03:56.042Z,92.57
2022-10-16T07:06:26.269Z,92.60
2022-10-16T07:08:53.673Z,92.44
2022-10-16T07:11:24.395Z,92.51
2022-10-16T07:13:55.099Z,92.82
2022-10-16T07:16:27.819Z,92.76
2022-10-16T07:19:00.769Z,92.87
2022-10-16T07:21:37.427Z,92.72
2022-10-16T07:24:07.693Z,92.67
2022-10-16T07:26:37.839Z,92.96
2022-10-16T07:29:05.042Z,92.80
2022-10-16T07:31:32.343Z,92.81
2022-10-16T07:34:01.284Z,93.22
2022-10-16T07:36:28.322Z,93.26
2022-10-16T07:38:58.644Z,93.26
2022-10-16T07:41:28.412Z,93.59
2022-10-16T07:43:57.576Z,93.55
2022-10-16T07:46:24.818Z,93.22
2022-10-16T07:48:52.008Z,92.64
2022-10-16T07:51:23.205Z,92.08
2022-10-16T07:53:50.810Z,91.43
2022-10-16T07:56:19.395Z,91.16
2022-10-16T07:58:46.945Z,90.80
2022-10-16T08:01:16.738Z,90.52
2022-10-16T08:03:51.520Z,90.35
2022-10-16T08:06:23.475Z,90.14
2022-10-16T08:08:53.797Z,90.06
2022-10-16T08:11:20.642Z,89.88
2022-10-16T08:13:47.521Z,90.27
2022-10-16T08:16:14.677Z,89.65
2022-10-16T08:18:42.065Z,89.66
2022-10-16T08:21:20.143Z,88.99
2022-10-16T08:23:51.530Z,88.71
2022-10-16T08:26:24.833Z,88.71
2022-10-16T08:28:52.987Z,88.93
2022-10-16T08:31:21.094Z,89.01
2022-10-16T08:33:48.914Z,88.24
2022-10-16T08:36:17.370Z,87.85
2022-10-16T08:38:44.269Z,86.78
2022-10-16T08:41:13.969Z,86.56
2022-10-16T08:44:01.596Z,86.24
2022-10-16T08:46:57.919Z,85.59
2022-10-16T08:49:25.852Z,84.78
2022-10-16T08:51:53.433Z,84.55
2022-10-16T08:54:46.272Z,83.58
2022-10-16T08:57:24.230Z,84.46
2022-10-16T08:59:52.743Z,84.31
2022-10-16T09:02:36.761Z,83.70
2022-10-16T09:05:12.711Z,83.26
2022-10-16T09:07:54.612Z,83.49
2022-10-16T09:10:40.802Z,83.53
2022-10-16T09:13:31.058Z,83.09
2022-10-16T09:16:31.530Z,83.12
2022-10-16T09:19:10.887Z,82.82
2022-10-16T09:21:42.810Z,81.98
2022-10-16T09:24:29.325Z,81.85
2022-10-16T09:26:56.528Z,81.58
2022-10-16T09:29:26.363Z,80.83
2022-10-16T09:31:56.472Z,81.03
2022-10-16T09:34:35.948Z,80.75
2022-10-16T09:37:10.151Z,80.68
2022-10-16T09:39:48.879Z,80.43
2022-10-16T09:42:37.693Z,80.13
2022-10-16T09:45:05.572Z,79.73
2022-10-16T09:47:33.281Z,80.06
2022-10-16T09:50:22.197Z,79.78
2022-10-16T09:52:49.125Z,79.23
2022-10-16T09:55:19.545Z,79.13
2022-10-16T09:57:56.226Z,78.83
2022-10-16T10:00:25.623Z,78.86
2022-10-16T10:05:41.568Z,77.28
2022-10-16T10:08:19.365Z,77.72
2022-10-16T10:10:49.915Z,77.92
2022-10-16T10:13:28.379Z,78.12
2022-10-16T10:15:55.331Z,78.01
2022-10-16T10:18:25.116Z,77.22
2022-10-16T10:21:01.705Z,77.20
2022-10-16T10:23:31.223Z,76.67
2022-10-16T10:26:14.037Z,76.59
2022-10-16T10:29:22.505Z,76.42
2022-10-16T10:32:11.544Z,76.14
2022-10-16T10:34:47.711Z,76.06
2022-10-16T10:37:39.059Z,76.39
2022-10-16T10:40:29.755Z,75.97
2022-10-16T10:43:05.880Z,75.82
2022-10-16T10:45:46.377Z,75.36
2022-10-16T10:48:50.567Z,75.40
2022-10-16T10:51:29.577Z,74.27
2022-10-16T10:54:24.579Z,75.09
2022-10-16T10:57:09.133Z,74.43
2022-10-16T10:59:57.331Z,74.70
2022-10-16T11:02:56.638Z,72.69
2022-10-16T11:05:42.399Z,74.10
2022-10-16T11:08:19.123Z,74.17
2022-10-16T11:10:54.847Z,73.94
2022-10-16T11:13:44.938Z,74.43
2022-10-16T11:16:24.931Z,74.44
2022-10-16T11:19:00.079Z,74.13
2022-10-16T11:21:31.776Z,73.12
2022-10-16T11:24:07.736Z,72.66
2022-10-16T11:26:41.183Z,72.33
2022-10-16T11:29:19.499Z,70.76
2022-10-16T11:31:54.935Z,69.14
2022-10-16T11:34:43.072Z,68.19
2022-10-16T11:37:19.762Z,68.68
2022-10-16T11:39:47.948Z,68.45
2022-10-16T11:42:30.722Z,65.11
2022-10-16T11:45:26.010Z,64.54
2022-10-16T11:48:03.849Z,66.18
2022-10-16T11:50:41.051Z,66.29
2022-10-16T11:53:49.129Z,66.22
2022-10-16T11:56:21.656Z,65.11
2022-10-16T11:59:13.972Z,63.84
2022-10-16T12:02:26.907Z,64.72
2022-10-16T12:05:17.972Z,65.34
2022-10-16T12:08:06.756Z,63.47
2022-10-16T12:13:43.448Z,64.02
2022-10-16T12:16:13.372Z,62.55
2022-10-16T12:18:43.688Z,63.01
2022-10-16T12:21:14.626Z,63.86
2022-10-16T12:23:53.485Z,63.38
2022-10-16T12:26:42.893Z,62.40
2022-10-16T12:29:40.002Z,62.63
2022-10-16T12:32:48.471Z,61.93
2022-10-16T12:35:30.149Z,61.18
2022-10-16T12:38:09.125Z,61.98
2022-10-16T12:40:39.146Z,60.04
2022-10-16T12:43:23.814Z,60.75
2022-10-16T12:46:10.841Z,59.83
2022-10-16T12:48:55.412Z,60.91
2022-10-16T12:51:37.899Z,61.32
2022-10-16T12:54:20.307Z,60.63
2022-10-16T12:57:02.273Z,60.85
2022-10-16T12:59:44.181Z,58.60
2022-10-16T13:02:36.017Z,58.34
2022-10-16T13:05:12.043Z,61.07
2022-10-16T13:07:57.011Z,59.90
2022-10-16T13:11:03.824Z,59.26
2022-10-16T13:13:56.578Z,59.37
2022-10-16T13:16:54.001Z,59.05
2022-10-16T13:19:45.202Z,59.69
2022-10-16T13:22:31.345Z,57.65
2022-10-16T13:25:19.325Z,59.40
2022-10-16T13:28:04.272Z,55.92
2022-10-16T13:30:42.000Z,59.15
2022-10-16T13:33:18.676Z,58.91
2022-10-16T13:35:55.460Z,58.57
2022-10-16T13:38:33.167Z,58.92
2022-10-16T13:41:12.925Z,59.30
2022-10-16T13:43:47.228Z,59.76
2022-10-16T13:46:19.807Z,59.82
2022-10-16T13:49:02.074Z,59.06
2022-10-16T13:51:30.369Z,59.78
2022-10-16T13:53:58.570Z,59.71
2022-10-16T13:56:34.139Z,59.88
2022-10-16T13:59:07.133Z,59.56
2022-10-16T14:01:44.854Z,59.69
2022-10-16T14:04:15.092Z,59.68
2022-10-16T14:06:46.097Z,59.73
2022-10-16T14:09:31.323Z,59.23
2022-10-16T14:12:03.794Z,59.67
2022-10-16T14:14:42.586Z,58.99
2022-10-16T14:17:27.697Z,58.73
2022-10-16T14:20:04.156Z,58.92
2022-10-16T14:22:43.700Z,59.11
2022-10-16T14:25:22.868Z,58.56
2022-10-16T14:28:16.134Z,59.27
2022-10-16T14:31:01.196Z,59.27
2022-10-16T14:33:31.046Z,59.16
2022-10-16T14:36:05.439Z,59.12
2022-10-16T14:38:33.811Z,59.11
2022-10-16T14:41:02.180Z,59.60
2022-10-16T14:43:39.123Z,59.66
2022-10-16T14:46:16.007Z,59.36
2022-10-16T14:48:45.347Z,59.43
2022-10-16T14:51:18.017Z,59.07
2022-10-16T14:53:44.825Z,59.43
2022-10-16T14:56:23.285Z,59.57
2022-10-16T14:58:52.337Z,59.49
2022-10-16T15:01:19.810Z,59.98
2022-10-16T15:03:47.077Z,60.17
2022-10-16T15:06:16.437Z,60.29
2022-10-16T15:08:44.344Z,59.96
2022-10-16T15:11:15.580Z,59.82
2022-10-16T15:13:42.813Z,59.94
2022-10-16T15:16:16.240Z,60.61
2022-10-16T15:18:43.612Z,60.74
2022-10-16T15:21:27.519Z,60.75
2022-10-16T15:23:54.710Z,60.83
2022-10-16T15:26:21.480Z,60.84
2022-10-16T15:28:48.327Z,61.24
2022-10-16T15:31:15.234Z,60.67
2022-10-16T15:33:42.386Z,60.72
2022-10-16T15:36:09.449Z,60.80
2022-10-16T15:38:36.518Z,61.34
2022-10-16T15:41:03.629Z,61.70
2022-10-16T15:43:30.470Z,61.68
2022-10-16T15:46:12.436Z,62.14
2022-10-16T15:48:39.451Z,62.09
2022-10-16T15:51:08.371Z,62.69
2022-10-16T15:53:35.952Z,62.91
2022-10-16T15:56:07.685Z,63.48
2022-10-16T15:58:35.156Z,63.51
2022-10-16T16:01:03.054Z,63.48
2022-10-16T16:03:30.199Z,63.88
2022-10-16T16:05:58.096Z,64.31
2022-10-16T16:08:25.016Z,64.55
2022-10-16T16:11:12.652Z,64.60
2022-10-16T16:13:40.001Z,64.77
2022-10-16T16:16:12.300Z,64.74
2022-10-16T16:18:40.122Z,64.72
2022-10-16T16:21:07.501Z,65.03
2022-10-16T16:23:34.745Z,65.11
2022-10-16T16:26:25.064Z,65.55
2022-10-16T16:28:52.023Z,65.70
2022-10-16T16:31:19.073Z,66.12
2022-10-16T16:33:46.084Z,66.65
2022-10-16T16:36:15.897Z,66.82
2022-10-16T16:38:43.022Z,66.99
2022-10-16T16:41:26.443Z,67.59
2022-10-16T16:43:54.964Z,67.69
2022-10-16T16:46:22.773Z,67.62
2022-10-16T16:48:54.616Z,67.98
2022-10-16T16:51:21.535Z,68.22
2022-10-16T16:53:53.759Z,68.27
2022-10-16T16:56:23.436Z,68.13
2022-10-16T16:58:53.191Z,68.56
2022-10-16T17:01:21.631Z,69.06
2022-10-16T17:03:53.183Z,69.50
2022-10-16T17:06:27.541Z,69.64
2022-10-16T17:08:54.678Z,69.79
2022-10-16T17:11:27.503Z,69.91
2022-10-16T17:13:57.129Z,70.22
2022-10-16T17:16:34.243Z,70.04
2022-10-16T17:19:04.039Z,70.14
2022-10-16T17:21:33.065Z,70.35
2022-10-16T17:24:01.938Z,70.09
2022-10-16T17:26:29.989Z,70.27
2022-10-16T17:29:00.590Z,70.12
2022-10-16T17:31:34.944Z,69.93
2022-10-16T17:34:04.991Z,70.12
2022-10-16T17:36:36.076Z,69.97
2022-10-16T17:39:10.985Z,70.33
2022-10-16T17:41:38.543Z,70.06
2022-10-16T17:44:07.461Z,70.37
2022-10-16T17:46:38.386Z,70.46
2022-10-16T17:49:09.905Z,70.23
2022-10-16T17:51:36.843Z,70.32
2022-10-16T17:54:03.816Z,69.96
2022-10-16T17:56:31.605Z,70.09
2022-10-16T17:59:01.981Z,69.79
2022-10-16T18:01:40.596Z,69.67
2022-10-16T18:04:15.052Z,69.77
2022-10-16T18:06:44.075Z,69.74
2022-10-16T18:09:15.217Z,69.90
2022-10-16T18:11:42.092Z,69.83
2022-10-16T18:14:09.130Z,69.83
2022-10-16T18:16:37.029Z,70.09
2022-10-16T18:19:03.975Z,70.14
2022-10-16T18:21:30.951Z,70.35
2022-10-16T18:24:01.489Z,70.85
2022-10-16T18:26:28.856Z,70.70
2022-10-16T18:28:57.602Z,70.79
2022-10-16T18:31:26.760Z,70.78
2022-10-16T18:33:56.007Z,70.86
2022-10-16T18:36:32.821Z,71.15
2022-10-16T18:39:02.021Z,71.13
2022-10-16T18:41:29.106Z,71.43
2022-10-16T18:43:59.282Z,71.36
2022-10-16T18:46:26.693Z,71.69
2022-10-16T18:48:54.800Z,71.78
2022-10-16T18:51:26.201Z,72.26
2022-10-16T18:54:00.272Z,72.60
2022-10-16T18:56:30.481Z,73.14
2022-10-16T18:59:00.872Z,73.39
2022-10-16T19:01:30.383Z,74.33
2022-10-16T19:04:13.873Z,74.64
2022-10-16T19:06:47.105Z,75.15
2022-10-16T19:09:16.859Z,75.12
2022-10-16T19:11:44.708Z,75.28
2022-10-16T19:14:14.094Z,76.17
2022-10-16T19:16:43.190Z,76.85
2022-10-16T19:19:18.470Z,77.18
2022-10-16T19:21:47.945Z,77.54
2022-10-16T19:24:16.718Z,78.26
2022-10-16T19:26:44.078Z,78.65
2022-10-16T19:29:11.977Z,79.07
2022-10-16T19:31:39.907Z,79.36
2022-10-16T19:34:07.675Z,79.62
2022-10-16T19:36:37.111Z,79.79
2022-10-16T19:39:08.628Z,80.30
2022-10-16T19:41:37.215Z,80.99
2022-10-16T19:44:08.306Z,81.77
2022-10-16T19:46:36.136Z,82.13
2022-10-16T19:49:06.463Z,83.02
2022-10-16T19:51:34.294Z,83.84
2022-10-16T19:54:05.201Z,84.65
2022-10-16T19:56:33.941Z,85.74
2022-10-16T19:59:01.404Z,86.35
2022-10-16T20:01:31.610Z,87.25
2022-10-16T20:03:59.030Z,87.31
2022-10-16T20:06:26.676Z,88.07
2022-10-16T20:08:55.281Z,88.15
2022-10-16T20:11:26.441Z,88.52
2022-10-16T20:13:53.692Z,88.95
2022-10-16T20:16:21.153Z,89.01
2022-10-16T20:18:51.249Z,89.34
2022-10-16T20:21:29.853Z,89.38
2022-10-16T20:23:57.814Z,89.62
2022-10-16T20:26:26.197Z,89.57
2022-10-16T20:28:54.521Z,90.05
2022-10-16T20:31:25.686Z,90.27
2022-10-16T20:33:55.272Z,90.05
2022-10-16T20:36:24.777Z,90.09
2022-10-16T20:38:52.029Z,90.30
2022-10-16T20:41:19.542Z,90.20
2022-10-16T20:43:48.573Z,91.13
2022-10-16T20:46:20.484Z,91.48
2022-10-16T20:48:47.850Z,91.68
2022-10-16T20:51:24.710Z,92.12
2022-10-16T20:54:04.256Z,92.01
2022-10-16T20:56:34.763Z,92.32
2022-10-16T20:59:01.612Z,92.50
2022-10-16T21:01:31.205Z,92.74
2022-10-16T21:04:02.095Z,92.73
2022-10-16T21:06:32.536Z,92.92
2022-10-16T21:09:04.232Z,92.91
2022-10-16T21:11:34.887Z,93.97
2022-10-16T21:14:05.864Z,94.21
2022-10-16T21:16:34.525Z,94.77
2022-10-16T21:19:01.492Z,94.69
2022-10-16T21:21:32.360Z,94.71
2022-10-16T21:24:00.667Z,95.30
2022-10-16T21:26:29.143Z,95.36
2022-10-16T21:29:02.117Z,95.28
2022-10-16T21:31:30.182Z,95.13
2022-10-16T21:33:57.769Z,95.44
2022-10-16T21:36:28.744Z,95.36
2022-10-16T21:38:56.773Z,95.24
2022-10-16T21:41:27.365Z,95.50
2022-10-16T21:43:56.467Z,96.20
2022-10-16T21:46:28.208Z,95.43
2022-10-16T21:49:00.849Z,95.61
2022-10-16T21:51:34.047Z,95.27
2022-10-16T21:54:02.294Z,95.34
2022-10-16T21:56:29.408Z,95.43
2022-10-16T21:58:56.464Z,95.74
2022-10-16T22:01:25.937Z,95.52
2022-10-16T22:03:53.095Z,95.49
2022-10-16T22:06:24.391Z,95.72
2022-10-16T22:08:53.312Z,95.70
2022-10-16T22:11:27.962Z,95.69
2022-10-16T22:13:57.051Z,96.19
2022-10-16T22:16:27.160Z,95.95
2022-10-16T22:18:56.353Z,95.69
2022-10-16T22:21:24.318Z,95.98
2022-10-16T22:23:51.923Z,96.02
2022-10-16T22:26:18.785Z,95.82
2022-10-16T22:28:45.776Z,95.99
2022-10-16T22:31:14.633Z,96.10
2022-10-16T22:33:42.231Z,96.41
2022-10-16T22:36:13.462Z,96.29
2022-10-16T22:38:40.664Z,95.92
2022-10-16T22:41:13.019Z,96.21
2022-10-16T22:43:44.145Z,96.18
2022-10-16T22:46:18.454Z,96.39
2022-10-16T22:48:45.598Z,96.76
2022-10-16T22:51:17.398Z,96.46
2022-10-16T22:53:46.735Z,96.46
2022-10-16T22:56:15.512Z,96.31
2022-10-16T22:58:43.469Z,96.35
2022-10-16T23:01:30.901Z,96.48
2022-10-16T23:03:57.971Z,96.48
2022-10-16T23:06:25.139Z,96.46
2022-10-16T23:08:59.073Z,96.17
2022-10-16T23:11:26.983Z,95.94
2022-10-16T23:13:53.950Z,95.89
2022-10-16T23:16:23.113Z,95.71
2022-10-16T23:18:50.832Z,96.02
2022-10-16T23:21:22.005Z,96.20
2022-10-16T23:23:51.886Z,95.94
2022-10-16T23:26:23.837Z,96.08
2022-10-16T23:28:50.984Z,96.29
2022-10-16T23:31:18.819Z,96.55
2022-10-16T23:33:45.701Z,98.02
2022-10-16T23:36:17.096Z,98.27
2022-10-16T23:38:44.926Z,98.26
2022-10-16T23:41:11.995Z,98.39
2022-10-16T23:43:40.560Z,98.41
2022-10-16T23:46:10.067Z,98.39
2022-10-16T23:48:40.270Z,98.41
2022-10-16T23:51:08.842Z,98.71
2022-10-16T23:53:35.970Z,99.50
2022-10-16T23:56:02.802Z,99.23
2022-10-16T23:58:29.609Z,99.30
